<?xml version="1.0" encoding="UTF-8"?>
<gpx version="1.1" creator="2bulu-scraper" xmlns="http://www.topografix.com/GPX/1/1">
  <metadata><name>兴文县古佛台村登山路线</name><desc>source: 2bulu.com trackId=83322275; exported 2026-09-01T19:08:38.342Z</desc>
    <bounds minlat="28.0839213" minlon="105.1937642" maxlat="28.0912616" maxlon="105.2076493"/>
    <link href="https://www.2bulu.com/track/t-3pvixhmdzjrp%252FR2KBg5Tzw%253D%253D.htm"><text>2bulu 源页面</text></link>
  </metadata>
  <wpt lat="28.0912616" lon="105.1937642"><ele>853</ele><name>古佛台山登山路口
        </name></wpt>
  <wpt lat="28.0912616" lon="105.1937642"><ele>853</ele><name>
        </name></wpt>
  <wpt lat="28.0909073" lon="105.1952138"><ele>915</ele><name>林中小屋
        </name></wpt>
  <wpt lat="28.0909463" lon="105.1953913"><ele>922</ele><name>
        </name></wpt>
  <wpt lat="28.0904419" lon="105.1961583"><ele>966</ele><name>
        </name></wpt>
  <wpt lat="28.0896962" lon="105.1975575"><ele>1059</ele><name>风景点（老鹰崖）
        </name></wpt>
  <wpt lat="28.0895534" lon="105.1988099"><ele>1101</ele><name>
        </name></wpt>
  <wpt lat="28.0895089" lon="105.1989025"><ele>1107</ele><name>
        </name></wpt>
  <wpt lat="28.0893014" lon="105.1992363"><ele>1132</ele><name>
        </name></wpt>
  <wpt lat="28.0893014" lon="105.1992363"><ele>1132</ele><name>
        </name></wpt>
  <wpt lat="28.089311" lon="105.1998761"><ele>1162</ele><name>
        </name></wpt>
  <wpt lat="28.0893759" lon="105.2000826"><ele>1162</ele><name>
        </name></wpt>
  <wpt lat="28.0894067" lon="105.2002924"><ele>1166</ele><name>
        </name></wpt>
  <wpt lat="28.0894252" lon="105.2004964"><ele>1174</ele><name>
        </name></wpt>
  <wpt lat="28.0894435" lon="105.2005971"><ele>1180</ele><name>
        </name></wpt>
  <wpt lat="28.0894586" lon="105.2008162"><ele>1185</ele><name>
        </name></wpt>
  <wpt lat="28.0894119" lon="105.2013482"><ele>1202</ele><name>
        </name></wpt>
  <wpt lat="28.0894078" lon="105.2015635"><ele>1207</ele><name>
        </name></wpt>
  <wpt lat="28.0894732" lon="105.2018775"><ele>1208</ele><name>
        </name></wpt>
  <wpt lat="28.0894732" lon="105.2018775"><ele>1208</ele><name>
        </name></wpt>
  <wpt lat="28.0894704" lon="105.2023014"><ele>1220</ele><name>
        </name></wpt>
  <wpt lat="28.0891937" lon="105.2041821"><ele>1313</ele><name>1314休息打卡点
        </name></wpt>
  <wpt lat="28.0891895" lon="105.2041697"><ele>1314</ele><name>山腰卫生间（1314休息点）
        </name></wpt>
  <wpt lat="28.0891917" lon="105.204156"><ele>1314</ele><name>
        </name></wpt>
  <wpt lat="28.0886328" lon="105.2046496"><ele>1334</ele><name>
        </name></wpt>
  <wpt lat="28.0883381" lon="105.2046132"><ele>1349</ele><name>
        </name></wpt>
  <wpt lat="28.0883381" lon="105.2046132"><ele>1349</ele><name>
        </name></wpt>
  <wpt lat="28.0883381" lon="105.2046132"><ele>1349</ele><name>
        </name></wpt>
  <wpt lat="28.0884908" lon="105.2047528"><ele>1379</ele><name>
        </name></wpt>
  <wpt lat="28.0885773" lon="105.2055793"><ele>1464</ele><name>
        </name></wpt>
  <wpt lat="28.0885773" lon="105.2055793"><ele>1464</ele><name>
        </name></wpt>
  <wpt lat="28.0886334" lon="105.2056417"><ele>1475</ele><name>
        </name></wpt>
  <wpt lat="28.0886334" lon="105.2056417"><ele>1475</ele><name>
        </name></wpt>
  <wpt lat="28.088785" lon="105.2061333"><ele>1519</ele><name>
        </name></wpt>
  <wpt lat="28.088785" lon="105.2061333"><ele>1519</ele><name>古佛台山平台休息点
        </name></wpt>
  <wpt lat="28.0880161" lon="105.2059816"><ele>1532</ele><name>
        </name></wpt>
  <wpt lat="28.0880161" lon="105.2059816"><ele>1532</ele><name>
        </name></wpt>
  <wpt lat="28.0867861" lon="105.2063821"><ele>1557</ele><name>
        </name></wpt>
  <wpt lat="28.0856499" lon="105.2069928"><ele>1595</ele><name>
        </name></wpt>
  <wpt lat="28.0856499" lon="105.2069928"><ele>1595</ele><name>
        </name></wpt>
  <wpt lat="28.0855434" lon="105.206988"><ele>1597</ele><name>
        </name></wpt>
  <wpt lat="28.0853438" lon="105.2069312"><ele>1599</ele><name>路口
        </name></wpt>
  <wpt lat="28.0849709" lon="105.2076493"><ele>1620</ele><name>风景点（古佛遗址2）
        </name></wpt>
  <wpt lat="28.0847342" lon="105.2075084"><ele>1621</ele><name>风景点（古佛遗址3）
        </name></wpt>
  <wpt lat="28.0839412" lon="105.2074483"><ele>1663</ele><name>风景点（古佛之巅）
        </name></wpt>
  <wpt lat="28.0840882" lon="105.2072252"><ele>1610</ele><name>川南第一峰（风景点）
        </name></wpt>
  <wpt lat="28.0840882" lon="105.2072252"><ele>1610</ele><name>
        </name></wpt>
  <wpt lat="28.0840882" lon="105.2072252"><ele>1610</ele><name>
        </name></wpt>
  <wpt lat="28.0840882" lon="105.2072252"><ele>1610</ele><name>
        </name></wpt>
  <trk><name>兴文县古佛台村登山路线</name>
      <trkseg>
        <trkpt lat="28.0912616" lon="105.1937642"><ele>853.37</ele><time>2026-04-30T16:07:45.000Z</time></trkpt>
        <trkpt lat="28.0912148" lon="105.193823"><ele>853.37</ele><time>2026-04-30T16:08:33.000Z</time></trkpt>
        <trkpt lat="28.0911904" lon="105.1939224"><ele>853.9</ele><time>2026-04-30T16:08:41.000Z</time></trkpt>
        <trkpt lat="28.0911214" lon="105.1939989"><ele>855.51</ele><time>2026-04-30T16:08:53.000Z</time></trkpt>
        <trkpt lat="28.0910283" lon="105.1940525"><ele>858.97</ele><time>2026-04-30T16:09:05.000Z</time></trkpt>
        <trkpt lat="28.0909333" lon="105.194094"><ele>862.47</ele><time>2026-04-30T16:09:19.000Z</time></trkpt>
        <trkpt lat="28.0908534" lon="105.1941604"><ele>866.91</ele><time>2026-04-30T16:09:33.000Z</time></trkpt>
        <trkpt lat="28.0908448" lon="105.1942646"><ele>870.05</ele><time>2026-04-30T16:09:45.000Z</time></trkpt>
        <trkpt lat="28.0907838" lon="105.1943264"><ele>872.57</ele><time>2026-04-30T16:10:07.000Z</time></trkpt>
        <trkpt lat="28.0907729" lon="105.194332"><ele>876.04</ele><time>2026-04-30T16:10:16.000Z</time></trkpt>
        <trkpt lat="28.0907877" lon="105.1944045"><ele>877.16</ele><time>2026-04-30T16:10:32.000Z</time></trkpt>
        <trkpt lat="28.0908111" lon="105.1945068"><ele>879.1</ele><time>2026-04-30T16:11:14.000Z</time></trkpt>
        <trkpt lat="28.0908287" lon="105.1946166"><ele>879.98</ele><time>2026-04-30T16:11:30.000Z</time></trkpt>
        <trkpt lat="28.0909026" lon="105.1946417"><ele>881.07</ele><time>2026-04-30T16:11:54.000Z</time></trkpt>
        <trkpt lat="28.0909205" lon="105.1947258"><ele>885.35</ele><time>2026-04-30T16:13:06.000Z</time></trkpt>
        <trkpt lat="28.0908875" lon="105.1948272"><ele>888.41</ele><time>2026-04-30T16:13:26.000Z</time></trkpt>
        <trkpt lat="28.0908983" lon="105.1948595"><ele>891.74</ele><time>2026-04-30T16:13:38.000Z</time></trkpt>
        <trkpt lat="28.0909052" lon="105.1949436"><ele>893.68</ele><time>2026-04-30T16:14:06.000Z</time></trkpt>
        <trkpt lat="28.0909214" lon="105.1949937"><ele>897.03</ele><time>2026-04-30T16:14:22.000Z</time></trkpt>
        <trkpt lat="28.090936" lon="105.1950886"><ele>899.26</ele><time>2026-04-30T16:14:56.000Z</time></trkpt>
        <trkpt lat="28.0909172" lon="105.19519"><ele>904.05</ele><time>2026-04-30T16:15:16.000Z</time></trkpt>
        <trkpt lat="28.0909073" lon="105.1952138"><ele>908.74</ele><time>2026-04-30T16:15:20.000Z</time></trkpt>
        <trkpt lat="28.0909141" lon="105.1952884"><ele>911.38</ele><time>2026-04-30T16:15:58.000Z</time></trkpt>
        <trkpt lat="28.0909463" lon="105.1953913"><ele>915.14</ele><time>2026-04-30T16:17:12.000Z</time></trkpt>
        <trkpt lat="28.0909223" lon="105.1955062"><ele>918.17</ele><time>2026-04-30T16:19:12.000Z</time></trkpt>
        <trkpt lat="28.0908941" lon="105.1956069"><ele>921.04</ele><time>2026-04-30T16:19:28.000Z</time></trkpt>
        <trkpt lat="28.0908422" lon="105.1956898"><ele>924.72</ele><time>2026-04-30T16:19:46.000Z</time></trkpt>
        <trkpt lat="28.0907853" lon="105.1957744"><ele>927.42</ele><time>2026-04-30T16:20:10.000Z</time></trkpt>
        <trkpt lat="28.0907044" lon="105.1957706"><ele>930.58</ele><time>2026-04-30T16:20:38.000Z</time></trkpt>
        <trkpt lat="28.0906135" lon="105.1957326"><ele>932.31</ele><time>2026-04-30T16:21:06.000Z</time></trkpt>
        <trkpt lat="28.0906014" lon="105.1958067"><ele>935.09</ele><time>2026-04-30T16:22:52.000Z</time></trkpt>
        <trkpt lat="28.090541" lon="105.1958843"><ele>939.53</ele><time>2026-04-30T16:23:18.000Z</time></trkpt>
        <trkpt lat="28.0905203" lon="105.1959832"><ele>944.11</ele><time>2026-04-30T16:23:34.000Z</time></trkpt>
        <trkpt lat="28.0905042" lon="105.1960864"><ele>946.85</ele><time>2026-04-30T16:24:18.000Z</time></trkpt>
        <trkpt lat="28.0904419" lon="105.1961583"><ele>949.95</ele><time>2026-04-30T16:24:56.000Z</time></trkpt>
        <trkpt lat="28.0903868" lon="105.1962452"><ele>956.78</ele><time>2026-04-30T16:25:22.000Z</time></trkpt>
        <trkpt lat="28.0903366" lon="105.1963387"><ele>961.11</ele><time>2026-04-30T16:25:42.000Z</time></trkpt>
        <trkpt lat="28.0903293" lon="105.1963606"><ele>963.14</ele><time>2026-04-30T16:25:44.000Z</time></trkpt>
        <trkpt lat="28.0903045" lon="105.1964416"><ele>964.54</ele><time>2026-04-30T16:26:44.000Z</time></trkpt>
        <trkpt lat="28.0902925" lon="105.196551"><ele>966.93</ele><time>2026-04-30T16:32:54.000Z</time></trkpt>
        <trkpt lat="28.0902816" lon="105.1966555"><ele>970.45</ele><time>2026-04-30T16:34:30.000Z</time></trkpt>
        <trkpt lat="28.0902703" lon="105.196773"><ele>977.15</ele><time>2026-04-30T16:35:20.000Z</time></trkpt>
        <trkpt lat="28.0902418" lon="105.19688"><ele>986.59</ele><time>2026-04-30T16:35:32.000Z</time></trkpt>
        <trkpt lat="28.0902159" lon="105.1969907"><ele>991.13</ele><time>2026-04-30T16:38:30.000Z</time></trkpt>
        <trkpt lat="28.0901828" lon="105.1970889"><ele>996.09</ele><time>2026-04-30T16:42:44.000Z</time></trkpt>
        <trkpt lat="28.0901501" lon="105.1971858"><ele>1002.42</ele><time>2026-04-30T16:43:56.000Z</time></trkpt>
        <trkpt lat="28.0901061" lon="105.1972786"><ele>1010.87</ele><time>2026-04-30T16:45:08.000Z</time></trkpt>
        <trkpt lat="28.0900411" lon="105.1973512"><ele>1018.39</ele><time>2026-04-30T16:45:48.000Z</time></trkpt>
        <trkpt lat="28.0899641" lon="105.1974066"><ele>1025.21</ele><time>2026-04-30T16:46:32.000Z</time></trkpt>
        <trkpt lat="28.089871" lon="105.1974022"><ele>1033.25</ele><time>2026-04-30T16:46:54.000Z</time></trkpt>
        <trkpt lat="28.0898149" lon="105.1973202"><ele>1038.88</ele><time>2026-04-30T16:47:34.000Z</time></trkpt>
        <trkpt lat="28.0897901" lon="105.1973813"><ele>1041.51</ele><time>2026-04-30T16:52:52.000Z</time></trkpt>
        <trkpt lat="28.0897577" lon="105.1974789"><ele>1044.38</ele><time>2026-04-30T16:53:26.000Z</time></trkpt>
        <trkpt lat="28.0896962" lon="105.1975575"><ele>1047.99</ele><time>2026-04-30T16:54:12.000Z</time></trkpt>
        <trkpt lat="28.089703" lon="105.197662"><ele>1052.71</ele><time>2026-04-30T16:57:00.000Z</time></trkpt>
        <trkpt lat="28.0897678" lon="105.197733"><ele>1060.99</ele><time>2026-04-30T17:03:46.000Z</time></trkpt>
        <trkpt lat="28.0897799" lon="105.1978387"><ele>1066.85</ele><time>2026-04-30T17:04:24.000Z</time></trkpt>
        <trkpt lat="28.0897883" lon="105.1979458"><ele>1072.83</ele><time>2026-04-30T17:04:46.000Z</time></trkpt>
        <trkpt lat="28.0897926" lon="105.1980495"><ele>1077.86</ele><time>2026-04-30T17:05:00.000Z</time></trkpt>
        <trkpt lat="28.0898278" lon="105.1981436"><ele>1082.14</ele><time>2026-04-30T17:06:00.000Z</time></trkpt>
        <trkpt lat="28.0898352" lon="105.1982504"><ele>1085.09</ele><time>2026-04-30T17:06:10.000Z</time></trkpt>
        <trkpt lat="28.0898021" lon="105.1983445"><ele>1086.65</ele><time>2026-04-30T17:06:24.000Z</time></trkpt>
        <trkpt lat="28.0897531" lon="105.1984417"><ele>1087.68</ele><time>2026-04-30T17:06:46.000Z</time></trkpt>
        <trkpt lat="28.0897002" lon="105.1985366"><ele>1089.21</ele><time>2026-04-30T17:06:58.000Z</time></trkpt>
        <trkpt lat="28.0896418" lon="105.1986267"><ele>1090.28</ele><time>2026-04-30T17:07:26.000Z</time></trkpt>
        <trkpt lat="28.0895899" lon="105.1987149"><ele>1091.6</ele><time>2026-04-30T17:08:02.000Z</time></trkpt>
        <trkpt lat="28.0895534" lon="105.1988099"><ele>1094.66</ele><time>2026-04-30T17:08:40.000Z</time></trkpt>
        <trkpt lat="28.0895089" lon="105.1989025"><ele>1097.23</ele><time>2026-04-30T17:10:18.000Z</time></trkpt>
        <trkpt lat="28.0894585" lon="105.198991"><ele>1101.37</ele><time>2026-04-30T17:11:08.000Z</time></trkpt>
        <trkpt lat="28.0893818" lon="105.1990494"><ele>1105.2</ele><time>2026-04-30T17:12:38.000Z</time></trkpt>
        <trkpt lat="28.0893396" lon="105.1991402"><ele>1113.64</ele><time>2026-04-30T17:13:28.000Z</time></trkpt>
        <trkpt lat="28.0893014" lon="105.1992363"><ele>1121.22</ele><time>2026-04-30T17:14:00.000Z</time></trkpt>
        <trkpt lat="28.0893227" lon="105.1993298"><ele>1125.72</ele><time>2026-04-30T17:14:50.000Z</time></trkpt>
        <trkpt lat="28.0893508" lon="105.1994286"><ele>1130.37</ele><time>2026-04-30T17:15:16.000Z</time></trkpt>
        <trkpt lat="28.0893381" lon="105.1995285"><ele>1133.15</ele><time>2026-04-30T17:16:06.000Z</time></trkpt>
        <trkpt lat="28.0893226" lon="105.1996357"><ele>1137.61</ele><time>2026-04-30T17:16:30.000Z</time></trkpt>
        <trkpt lat="28.089285" lon="105.199745"><ele>1141.41</ele><time>2026-04-30T17:17:34.000Z</time></trkpt>
        <trkpt lat="28.0892918" lon="105.1997614"><ele>1148.01</ele><time>2026-04-30T17:17:40.000Z</time></trkpt>
        <trkpt lat="28.089311" lon="105.1998761"><ele>1151.99</ele><time>2026-04-30T17:21:36.000Z</time></trkpt>
        <trkpt lat="28.0893495" lon="105.1999792"><ele>1156.2</ele><time>2026-04-30T17:21:48.000Z</time></trkpt>
        <trkpt lat="28.0893759" lon="105.2000826"><ele>1158.41</ele><time>2026-04-30T17:22:00.000Z</time></trkpt>
        <trkpt lat="28.0894032" lon="105.2001881"><ele>1160.09</ele><time>2026-04-30T17:22:18.000Z</time></trkpt>
        <trkpt lat="28.0894067" lon="105.2002924"><ele>1161.52</ele><time>2026-04-30T17:22:40.000Z</time></trkpt>
        <trkpt lat="28.0894116" lon="105.2003952"><ele>1163.4</ele><time>2026-04-30T17:23:18.000Z</time></trkpt>
        <trkpt lat="28.0894252" lon="105.2004964"><ele>1165.94</ele><time>2026-04-30T17:23:54.000Z</time></trkpt>
        <trkpt lat="28.0894435" lon="105.2005971"><ele>1169.56</ele><time>2026-04-30T17:24:34.000Z</time></trkpt>
        <trkpt lat="28.0894547" lon="105.2007089"><ele>1174.16</ele><time>2026-04-30T17:25:22.000Z</time></trkpt>
        <trkpt lat="28.0894586" lon="105.2008162"><ele>1179.16</ele><time>2026-04-30T17:25:34.000Z</time></trkpt>
        <trkpt lat="28.0894471" lon="105.2009189"><ele>1181.51</ele><time>2026-04-30T17:26:12.000Z</time></trkpt>
        <trkpt lat="28.0894369" lon="105.2010219"><ele>1185.48</ele><time>2026-04-30T17:26:36.000Z</time></trkpt>
        <trkpt lat="28.0894277" lon="105.2011363"><ele>1188.73</ele><time>2026-04-30T17:27:00.000Z</time></trkpt>
        <trkpt lat="28.0894226" lon="105.2012446"><ele>1191.31</ele><time>2026-04-30T17:27:24.000Z</time></trkpt>
        <trkpt lat="28.0894119" lon="105.2013482"><ele>1193.61</ele><time>2026-04-30T17:27:52.000Z</time></trkpt>
        <trkpt lat="28.089407" lon="105.2014536"><ele>1197.2</ele><time>2026-04-30T17:28:16.000Z</time></trkpt>
        <trkpt lat="28.0894078" lon="105.2015635"><ele>1200.49</ele><time>2026-04-30T17:28:36.000Z</time></trkpt>
        <trkpt lat="28.0894351" lon="105.2016647"><ele>1203.12</ele><time>2026-04-30T17:28:52.000Z</time></trkpt>
        <trkpt lat="28.089458" lon="105.201766"><ele>1205.04</ele><time>2026-04-30T17:29:08.000Z</time></trkpt>
        <trkpt lat="28.0894732" lon="105.2018775"><ele>1205.77</ele><time>2026-04-30T17:29:28.000Z</time></trkpt>
        <trkpt lat="28.0894762" lon="105.2019923"><ele>1206.88</ele><time>2026-04-30T17:29:54.000Z</time></trkpt>
        <trkpt lat="28.0894718" lon="105.2020983"><ele>1207.31</ele><time>2026-04-30T17:30:12.000Z</time></trkpt>
        <trkpt lat="28.0894553" lon="105.2022001"><ele>1207.61</ele><time>2026-04-30T17:30:50.000Z</time></trkpt>
        <trkpt lat="28.0894704" lon="105.2023014"><ele>1210.44</ele><time>2026-04-30T17:31:24.000Z</time></trkpt>
        <trkpt lat="28.0894921" lon="105.2024011"><ele>1214.57</ele><time>2026-04-30T17:32:14.000Z</time></trkpt>
        <trkpt lat="28.0895494" lon="105.202496"><ele>1220.11</ele><time>2026-04-30T17:41:58.000Z</time></trkpt>
        <trkpt lat="28.089611" lon="105.2025808"><ele>1226.12</ele><time>2026-04-30T17:42:18.000Z</time></trkpt>
        <trkpt lat="28.0896692" lon="105.2026633"><ele>1230.64</ele><time>2026-04-30T17:42:38.000Z</time></trkpt>
        <trkpt lat="28.0897192" lon="105.2027493"><ele>1234.74</ele><time>2026-04-30T17:42:58.000Z</time></trkpt>
        <trkpt lat="28.0897688" lon="105.2028371"><ele>1235.5</ele><time>2026-04-30T17:43:24.000Z</time></trkpt>
        <trkpt lat="28.0897695" lon="105.2029404"><ele>1235.83</ele><time>2026-04-30T17:44:32.000Z</time></trkpt>
        <trkpt lat="28.089787" lon="105.203044"><ele>1241.7</ele><time>2026-04-30T17:45:28.000Z</time></trkpt>
        <trkpt lat="28.0897968" lon="105.2031498"><ele>1247.04</ele><time>2026-04-30T17:45:54.000Z</time></trkpt>
        <trkpt lat="28.0898274" lon="105.2032576"><ele>1251.48</ele><time>2026-04-30T17:47:08.000Z</time></trkpt>
        <trkpt lat="28.089867" lon="105.2033493"><ele>1259.5</ele><time>2026-04-30T17:47:38.000Z</time></trkpt>
        <trkpt lat="28.0898346" lon="105.20344"><ele>1265.24</ele><time>2026-04-30T17:48:04.000Z</time></trkpt>
        <trkpt lat="28.0897605" lon="105.2035011"><ele>1270.04</ele><time>2026-04-30T17:48:32.000Z</time></trkpt>
        <trkpt lat="28.0897071" lon="105.2035903"><ele>1277.1</ele><time>2026-04-30T17:48:50.000Z</time></trkpt>
        <trkpt lat="28.0896789" lon="105.2036932"><ele>1281.24</ele><time>2026-04-30T17:49:28.000Z</time></trkpt>
        <trkpt lat="28.0896369" lon="105.2038003"><ele>1283.63</ele><time>2026-04-30T17:50:44.000Z</time></trkpt>
        <trkpt lat="28.0895724" lon="105.2038839"><ele>1287.94</ele><time>2026-04-30T17:51:20.000Z</time></trkpt>
        <trkpt lat="28.0894954" lon="105.2039475"><ele>1292.77</ele><time>2026-04-30T17:52:02.000Z</time></trkpt>
        <trkpt lat="28.0894079" lon="105.2039736"><ele>1298.06</ele><time>2026-04-30T17:52:32.000Z</time></trkpt>
        <trkpt lat="28.0893137" lon="105.204006"><ele>1304.69</ele><time>2026-04-30T17:52:50.000Z</time></trkpt>
        <trkpt lat="28.0892419" lon="105.2040695"><ele>1309.34</ele><time>2026-04-30T17:54:12.000Z</time></trkpt>
        <trkpt lat="28.0891895" lon="105.2041526"><ele>1311.22</ele><time>2026-04-30T17:54:36.000Z</time></trkpt>
        <trkpt lat="28.089222" lon="105.2042418"><ele>1312.79</ele><time>2026-04-30T17:54:54.000Z</time></trkpt>
        <trkpt lat="28.0891443" lon="105.2042966"><ele>1313.04</ele><time>2026-04-30T18:13:32.000Z</time></trkpt>
        <trkpt lat="28.0891084" lon="105.2043961"><ele>1311.32</ele><time>2026-04-30T18:13:46.000Z</time></trkpt>
        <trkpt lat="28.0890373" lon="105.204462"><ele>1310.84</ele><time>2026-04-30T18:14:10.000Z</time></trkpt>
        <trkpt lat="28.0889517" lon="105.2045149"><ele>1314.15</ele><time>2026-04-30T18:14:48.000Z</time></trkpt>
        <trkpt lat="28.0888587" lon="105.2045361"><ele>1318.13</ele><time>2026-04-30T18:15:14.000Z</time></trkpt>
        <trkpt lat="28.0887977" lon="105.2046027"><ele>1319.62</ele><time>2026-04-30T18:16:12.000Z</time></trkpt>
        <trkpt lat="28.0887201" lon="105.2046484"><ele>1323.01</ele><time>2026-04-30T18:16:34.000Z</time></trkpt>
        <trkpt lat="28.0886328" lon="105.2046496"><ele>1327.4</ele><time>2026-04-30T18:17:02.000Z</time></trkpt>
        <trkpt lat="28.088526" lon="105.2045872"><ele>1330.21</ele><time>2026-04-30T18:18:02.000Z</time></trkpt>
        <trkpt lat="28.0885001" lon="105.2045865"><ele>1336.75</ele><time>2026-04-30T18:18:14.000Z</time></trkpt>
        <trkpt lat="28.0884191" lon="105.2045713"><ele>1341.91</ele><time>2026-04-30T18:18:32.000Z</time></trkpt>
        <trkpt lat="28.0883381" lon="105.2046132"><ele>1345.69</ele><time>2026-04-30T18:18:56.000Z</time></trkpt>
        <trkpt lat="28.0883879" lon="105.2047184"><ele>1347.19</ele><time>2026-04-30T18:22:26.000Z</time></trkpt>
        <trkpt lat="28.0883933" lon="105.2047174"><ele>1355.91</ele><time>2026-04-30T18:22:54.000Z</time></trkpt>
        <trkpt lat="28.088443" lon="105.2047938"><ele>1363.91</ele><time>2026-04-30T18:23:20.000Z</time></trkpt>
        <trkpt lat="28.0884585" lon="105.2048328"><ele>1367.3</ele><time>2026-04-30T18:23:26.000Z</time></trkpt>
        <trkpt lat="28.0884909" lon="105.2047382"><ele>1368.99</ele><time>2026-04-30T18:26:32.000Z</time></trkpt>
        <trkpt lat="28.0885304" lon="105.2048387"><ele>1373.71</ele><time>2026-04-30T18:29:08.000Z</time></trkpt>
        <trkpt lat="28.0885946" lon="105.2049252"><ele>1379.86</ele><time>2026-04-30T18:30:10.000Z</time></trkpt>
        <trkpt lat="28.0886851" lon="105.204924"><ele>1387.14</ele><time>2026-04-30T18:30:58.000Z</time></trkpt>
        <trkpt lat="28.0887486" lon="105.2049938"><ele>1395.12</ele><time>2026-04-30T18:31:20.000Z</time></trkpt>
        <trkpt lat="28.088808" lon="105.2050723"><ele>1399.14</ele><time>2026-04-30T18:32:00.000Z</time></trkpt>
        <trkpt lat="28.0888329" lon="105.2051779"><ele>1402.6</ele><time>2026-04-30T18:32:38.000Z</time></trkpt>
        <trkpt lat="28.0888503" lon="105.2052948"><ele>1403.43</ele><time>2026-04-30T18:36:42.000Z</time></trkpt>
        <trkpt lat="28.0888571" lon="105.2054089"><ele>1411.58</ele><time>2026-04-30T18:37:08.000Z</time></trkpt>
        <trkpt lat="28.0889005" lon="105.2055011"><ele>1417.57</ele><time>2026-04-30T18:37:38.000Z</time></trkpt>
        <trkpt lat="28.08899" lon="105.2055136"><ele>1419.77</ele><time>2026-04-30T18:38:16.000Z</time></trkpt>
        <trkpt lat="28.0889348" lon="105.2055481"><ele>1425.64</ele><time>2026-04-30T18:39:32.000Z</time></trkpt>
        <trkpt lat="28.0888512" lon="105.2055869"><ele>1432.6</ele><time>2026-04-30T18:40:14.000Z</time></trkpt>
        <trkpt lat="28.0887605" lon="105.2055717"><ele>1437.28</ele><time>2026-04-30T18:41:00.000Z</time></trkpt>
        <trkpt lat="28.0886696" lon="105.2055459"><ele>1442.67</ele><time>2026-04-30T18:44:36.000Z</time></trkpt>
        <trkpt lat="28.0885773" lon="105.2055793"><ele>1449.32</ele><time>2026-04-30T18:45:12.000Z</time></trkpt>
        <trkpt lat="28.0885447" lon="105.2056769"><ele>1455.84</ele><time>2026-04-30T18:47:07.000Z</time></trkpt>
        <trkpt lat="28.0886334" lon="105.2056417"><ele>1462.22</ele><time>2026-04-30T18:47:29.000Z</time></trkpt>
        <trkpt lat="28.0886039" lon="105.2057492"><ele>1467.68</ele><time>2026-04-30T18:48:42.000Z</time></trkpt>
        <trkpt lat="28.0886591" lon="105.2058347"><ele>1476.83</ele><time>2026-04-30T18:50:16.000Z</time></trkpt>
        <trkpt lat="28.0886635" lon="105.2059376"><ele>1484.68</ele><time>2026-04-30T18:51:14.000Z</time></trkpt>
        <trkpt lat="28.0886795" lon="105.2060453"><ele>1492</ele><time>2026-04-30T18:51:34.000Z</time></trkpt>
        <trkpt lat="28.0887409" lon="105.2061374"><ele>1495.32</ele><time>2026-04-30T18:52:40.000Z</time></trkpt>
        <trkpt lat="28.0886494" lon="105.2061255"><ele>1501.62</ele><time>2026-04-30T19:08:57.000Z</time></trkpt>
        <trkpt lat="28.0885597" lon="105.2061035"><ele>1510.1</ele><time>2026-04-30T19:09:11.000Z</time></trkpt>
        <trkpt lat="28.088469" lon="105.2060646"><ele>1516.14</ele><time>2026-04-30T19:09:29.000Z</time></trkpt>
        <trkpt lat="28.0883759" lon="105.2060256"><ele>1520.88</ele><time>2026-04-30T19:09:43.000Z</time></trkpt>
        <trkpt lat="28.0882868" lon="105.205981"><ele>1524.65</ele><time>2026-04-30T19:09:55.000Z</time></trkpt>
        <trkpt lat="28.0881943" lon="105.2059465"><ele>1526.33</ele><time>2026-04-30T19:10:13.000Z</time></trkpt>
        <trkpt lat="28.0881033" lon="105.2059293"><ele>1527.65</ele><time>2026-04-30T19:10:31.000Z</time></trkpt>
        <trkpt lat="28.0880082" lon="105.2059586"><ele>1530.09</ele><time>2026-04-30T19:10:51.000Z</time></trkpt>
        <trkpt lat="28.0880161" lon="105.2059816"><ele>1529.8</ele><time>2026-04-30T19:11:01.000Z</time></trkpt>
        <trkpt lat="28.0879607" lon="105.2059798"><ele>1530.78</ele><time>2026-04-30T19:11:43.000Z</time></trkpt>
        <trkpt lat="28.0878794" lon="105.2060058"><ele>1532.79</ele><time>2026-04-30T19:11:53.000Z</time></trkpt>
        <trkpt lat="28.0877831" lon="105.2060407"><ele>1532.57</ele><time>2026-04-30T19:12:03.000Z</time></trkpt>
        <trkpt lat="28.0876931" lon="105.2060827"><ele>1532.82</ele><time>2026-04-30T19:12:13.000Z</time></trkpt>
        <trkpt lat="28.0875955" lon="105.2061046"><ele>1532.99</ele><time>2026-04-30T19:12:23.000Z</time></trkpt>
        <trkpt lat="28.0874984" lon="105.2061221"><ele>1532.4</ele><time>2026-04-30T19:12:35.000Z</time></trkpt>
        <trkpt lat="28.087398" lon="105.2061285"><ele>1531.53</ele><time>2026-04-30T19:12:51.000Z</time></trkpt>
        <trkpt lat="28.0873011" lon="105.2061394"><ele>1530.78</ele><time>2026-04-30T19:13:05.000Z</time></trkpt>
        <trkpt lat="28.0872109" lon="105.2061672"><ele>1531.21</ele><time>2026-04-30T19:13:31.000Z</time></trkpt>
        <trkpt lat="28.0871286" lon="105.2062146"><ele>1532.15</ele><time>2026-04-30T19:14:01.000Z</time></trkpt>
        <trkpt lat="28.0870507" lon="105.206269"><ele>1533.45</ele><time>2026-04-30T19:14:19.000Z</time></trkpt>
        <trkpt lat="28.0869644" lon="105.2062832"><ele>1534.56</ele><time>2026-04-30T19:15:53.000Z</time></trkpt>
        <trkpt lat="28.0868695" lon="105.2063283"><ele>1539.56</ele><time>2026-04-30T19:16:37.000Z</time></trkpt>
        <trkpt lat="28.086851" lon="105.2063395"><ele>1544.86</ele><time>2026-04-30T19:16:41.000Z</time></trkpt>
        <trkpt lat="28.0867861" lon="105.2063821"><ele>1548.3</ele><time>2026-04-30T19:19:03.000Z</time></trkpt>
        <trkpt lat="28.0867014" lon="105.2064324"><ele>1552.08</ele><time>2026-04-30T19:21:11.000Z</time></trkpt>
        <trkpt lat="28.0866922" lon="105.2064442"><ele>1556.09</ele><time>2026-04-30T19:21:15.000Z</time></trkpt>
        <trkpt lat="28.0866108" lon="105.2064641"><ele>1558.76</ele><time>2026-04-30T19:21:47.000Z</time></trkpt>
        <trkpt lat="28.0865885" lon="105.2064691"><ele>1561.92</ele><time>2026-04-30T19:21:49.000Z</time></trkpt>
        <trkpt lat="28.0865127" lon="105.2065049"><ele>1563.73</ele><time>2026-04-30T19:23:09.000Z</time></trkpt>
        <trkpt lat="28.0864225" lon="105.2065232"><ele>1567.29</ele><time>2026-04-30T19:23:53.000Z</time></trkpt>
        <trkpt lat="28.0863364" lon="105.2065582"><ele>1574.18</ele><time>2026-04-30T19:24:11.000Z</time></trkpt>
        <trkpt lat="28.0862983" lon="105.2066428"><ele>1578.92</ele><time>2026-04-30T19:24:49.000Z</time></trkpt>
        <trkpt lat="28.086261" lon="105.206737"><ele>1581.43</ele><time>2026-04-30T19:25:07.000Z</time></trkpt>
        <trkpt lat="28.0861759" lon="105.2067888"><ele>1582.41</ele><time>2026-04-30T19:28:05.000Z</time></trkpt>
        <trkpt lat="28.0861083" lon="105.2068632"><ele>1585.92</ele><time>2026-04-30T19:28:27.000Z</time></trkpt>
        <trkpt lat="28.0860205" lon="105.206913"><ele>1590</ele><time>2026-04-30T19:28:53.000Z</time></trkpt>
        <trkpt lat="28.0859351" lon="105.2069632"><ele>1593.63</ele><time>2026-04-30T19:29:19.000Z</time></trkpt>
        <trkpt lat="28.0858451" lon="105.2069861"><ele>1596.7</ele><time>2026-04-30T19:29:33.000Z</time></trkpt>
        <trkpt lat="28.0857461" lon="105.2069936"><ele>1597.45</ele><time>2026-04-30T19:29:53.000Z</time></trkpt>
        <trkpt lat="28.0856499" lon="105.2069928"><ele>1598.18</ele><time>2026-04-30T19:30:09.000Z</time></trkpt>
        <trkpt lat="28.0855434" lon="105.206988"><ele>1596.96</ele><time>2026-04-30T19:30:38.000Z</time></trkpt>
        <trkpt lat="28.0854417" lon="105.2069635"><ele>1597.14</ele><time>2026-04-30T19:31:00.000Z</time></trkpt>
        <trkpt lat="28.0853438" lon="105.2069312"><ele>1597.44</ele><time>2026-04-30T19:31:12.000Z</time></trkpt>
        <trkpt lat="28.0852847" lon="105.2070083"><ele>1598.15</ele><time>2026-04-30T19:36:27.000Z</time></trkpt>
        <trkpt lat="28.085228" lon="105.2070997"><ele>1599.57</ele><time>2026-04-30T19:36:41.000Z</time></trkpt>
        <trkpt lat="28.0851438" lon="105.2071339"><ele>1602.33</ele><time>2026-04-30T19:36:53.000Z</time></trkpt>
        <trkpt lat="28.0850619" lon="105.2071472"><ele>1604.52</ele><time>2026-04-30T19:37:11.000Z</time></trkpt>
        <trkpt lat="28.0849997" lon="105.2072121"><ele>1606.98</ele><time>2026-04-30T19:37:37.000Z</time></trkpt>
        <trkpt lat="28.0849339" lon="105.2072376"><ele>1609.02</ele><time>2026-04-30T19:37:53.000Z</time></trkpt>
        <trkpt lat="28.0848784" lon="105.2073099"><ele>1610.16</ele><time>2026-04-30T19:38:39.000Z</time></trkpt>
        <trkpt lat="28.0849134" lon="105.2073881"><ele>1610.87</ele><time>2026-04-30T19:39:05.000Z</time></trkpt>
        <trkpt lat="28.0850054" lon="105.2074738"><ele>1612.85</ele><time>2026-04-30T19:43:21.000Z</time></trkpt>
        <trkpt lat="28.0850381" lon="105.2075786"><ele>1615.75</ele><time>2026-04-30T19:43:33.000Z</time></trkpt>
        <trkpt lat="28.0849709" lon="105.2076493"><ele>1617.82</ele><time>2026-04-30T19:45:23.000Z</time></trkpt>
        <trkpt lat="28.0849714" lon="105.2075458"><ele>1618.75</ele><time>2026-04-30T19:47:27.000Z</time></trkpt>
        <trkpt lat="28.08496" lon="105.207439"><ele>1619.4</ele><time>2026-04-30T19:49:29.000Z</time></trkpt>
        <trkpt lat="28.0849919" lon="105.2075477"><ele>1617.88</ele><time>2026-04-30T19:52:57.000Z</time></trkpt>
        <trkpt lat="28.0849581" lon="105.2075579"><ele>1616.06</ele><time>2026-04-30T19:53:03.000Z</time></trkpt>
        <trkpt lat="28.0848681" lon="105.207526"><ele>1615.4</ele><time>2026-04-30T19:54:15.000Z</time></trkpt>
        <trkpt lat="28.0847728" lon="105.2075036"><ele>1615.41</ele><time>2026-04-30T19:54:41.000Z</time></trkpt>
        <trkpt lat="28.0847342" lon="105.2075084"><ele>1617.56</ele><time>2026-04-30T19:54:51.000Z</time></trkpt>
        <trkpt lat="28.0846562" lon="105.2074776"><ele>1619</ele><time>2026-04-30T19:57:15.000Z</time></trkpt>
        <trkpt lat="28.0845983" lon="105.2075653"><ele>1622.22</ele><time>2026-04-30T19:57:37.000Z</time></trkpt>
        <trkpt lat="28.084515" lon="105.2075553"><ele>1623.97</ele><time>2026-04-30T19:57:57.000Z</time></trkpt>
        <trkpt lat="28.0844878" lon="105.2075289"><ele>1627.5</ele><time>2026-04-30T19:58:07.000Z</time></trkpt>
        <trkpt lat="28.0844182" lon="105.2075007"><ele>1629.23</ele><time>2026-04-30T19:58:31.000Z</time></trkpt>
        <trkpt lat="28.0843406" lon="105.2075476"><ele>1631.72</ele><time>2026-04-30T19:59:19.000Z</time></trkpt>
        <trkpt lat="28.0842513" lon="105.2075284"><ele>1632.06</ele><time>2026-04-30T20:00:57.000Z</time></trkpt>
        <trkpt lat="28.0842037" lon="105.2074382"><ele>1638.41</ele><time>2026-04-30T20:01:29.000Z</time></trkpt>
        <trkpt lat="28.0841093" lon="105.2074495"><ele>1643.65</ele><time>2026-04-30T20:02:33.000Z</time></trkpt>
        <trkpt lat="28.0841291" lon="105.2074402"><ele>1647.67</ele><time>2026-04-30T20:02:39.000Z</time></trkpt>
        <trkpt lat="28.0840514" lon="105.207438"><ele>1649.83</ele><time>2026-04-30T20:03:07.000Z</time></trkpt>
        <trkpt lat="28.0839412" lon="105.2074483"><ele>1652.56</ele><time>2026-04-30T20:04:11.000Z</time></trkpt>
        <trkpt lat="28.0840298" lon="105.2074784"><ele>1657.17</ele><time>2026-04-30T20:05:05.000Z</time></trkpt>
        <trkpt lat="28.0841366" lon="105.2074845"><ele>1660.21</ele><time>2026-04-30T20:05:15.000Z</time></trkpt>
        <trkpt lat="28.0841511" lon="105.2074789"><ele>1660.53</ele><time>2026-04-30T20:05:17.000Z</time></trkpt>
        <trkpt lat="28.0840859" lon="105.2074395"><ele>1660.93</ele><time>2026-04-30T20:05:29.000Z</time></trkpt>
        <trkpt lat="28.083975" lon="105.2074222"><ele>1659.82</ele><time>2026-04-30T20:05:41.000Z</time></trkpt>
        <trkpt lat="28.0839213" lon="105.2074232"><ele>1659.38</ele><time>2026-04-30T20:05:45.000Z</time></trkpt>
        <trkpt lat="28.0840105" lon="105.2074369"><ele>1659.19</ele><time>2026-04-30T20:12:42.000Z</time></trkpt>
        <trkpt lat="28.0841057" lon="105.2074333"><ele>1661.56</ele><time>2026-04-30T20:13:00.000Z</time></trkpt>
        <trkpt lat="28.0841765" lon="105.207369"><ele>1661.91</ele><time>2026-04-30T20:13:54.000Z</time></trkpt>
        <trkpt lat="28.0842548" lon="105.2073135"><ele>1658.13</ele><time>2026-04-30T20:14:22.000Z</time></trkpt>
        <trkpt lat="28.0843249" lon="105.2072315"><ele>1653.45</ele><time>2026-04-30T20:15:02.000Z</time></trkpt>
        <trkpt lat="28.0844099" lon="105.2071717"><ele>1647.16</ele><time>2026-04-30T20:15:22.000Z</time></trkpt>
        <trkpt lat="28.084486" lon="105.2071021"><ele>1644.12</ele><time>2026-04-30T20:15:46.000Z</time></trkpt>
        <trkpt lat="28.0845763" lon="105.2071071"><ele>1638.21</ele><time>2026-04-30T20:17:16.000Z</time></trkpt>
        <trkpt lat="28.0846694" lon="105.2071236"><ele>1634.89</ele><time>2026-04-30T20:17:34.000Z</time></trkpt>
        <trkpt lat="28.0847615" lon="105.2071224"><ele>1629.88</ele><time>2026-04-30T20:17:50.000Z</time></trkpt>
        <trkpt lat="28.0848468" lon="105.2070778"><ele>1627.09</ele><time>2026-04-30T20:18:12.000Z</time></trkpt>
        <trkpt lat="28.0849347" lon="105.2070338"><ele>1621.77</ele><time>2026-04-30T20:18:52.000Z</time></trkpt>
        <trkpt lat="28.0850303" lon="105.2070181"><ele>1618.61</ele><time>2026-04-30T20:19:06.000Z</time></trkpt>
        <trkpt lat="28.0851231" lon="105.2069827"><ele>1615.57</ele><time>2026-04-30T20:19:18.000Z</time></trkpt>
        <trkpt lat="28.0852268" lon="105.206956"><ele>1615.85</ele><time>2026-04-30T20:19:30.000Z</time></trkpt>
        <trkpt lat="28.0853148" lon="105.2069124"><ele>1614.88</ele><time>2026-04-30T20:19:40.000Z</time></trkpt>
        <trkpt lat="28.0852691" lon="105.206854"><ele>1612.16</ele><time>2026-04-30T20:20:06.000Z</time></trkpt>
        <trkpt lat="28.0851742" lon="105.2068235"><ele>1609.39</ele><time>2026-04-30T20:20:16.000Z</time></trkpt>
        <trkpt lat="28.0850596" lon="105.2068521"><ele>1608.62</ele><time>2026-04-30T20:20:28.000Z</time></trkpt>
        <trkpt lat="28.0849547" lon="105.2069169"><ele>1606.85</ele><time>2026-04-30T20:20:38.000Z</time></trkpt>
        <trkpt lat="28.0848429" lon="105.2069442"><ele>1603.84</ele><time>2026-04-30T20:20:50.000Z</time></trkpt>
        <trkpt lat="28.0847391" lon="105.2069505"><ele>1600.98</ele><time>2026-04-30T20:21:10.000Z</time></trkpt>
        <trkpt lat="28.0846452" lon="105.2069586"><ele>1599.39</ele><time>2026-04-30T20:21:28.000Z</time></trkpt>
        <trkpt lat="28.0845437" lon="105.2069794"><ele>1599.45</ele><time>2026-04-30T20:22:26.000Z</time></trkpt>
        <trkpt lat="28.0844519" lon="105.207024"><ele>1602.95</ele><time>2026-04-30T20:22:46.000Z</time></trkpt>
        <trkpt lat="28.084363" lon="105.2070747"><ele>1604.44</ele><time>2026-04-30T20:22:58.000Z</time></trkpt>
        <trkpt lat="28.0842855" lon="105.2071464"><ele>1604.41</ele><time>2026-04-30T20:23:06.000Z</time></trkpt>
        <trkpt lat="28.0842149" lon="105.2072279"><ele>1603.96</ele><time>2026-04-30T20:23:18.000Z</time></trkpt>
        <trkpt lat="28.0841827" lon="105.2073255"><ele>1602.75</ele><time>2026-04-30T20:23:30.000Z</time></trkpt>
        <trkpt lat="28.0841563" lon="105.207316"><ele>1602.38</ele><time>2026-04-30T20:23:42.000Z</time></trkpt>
        <trkpt lat="28.0840882" lon="105.2072252"><ele>1604.94</ele><time>2026-04-30T20:29:58.000Z</time></trkpt>
        <trkpt lat="28.0840882" lon="105.2072252"><ele>1604.94</ele><time>2026-04-30T20:31:42.000Z</time></trkpt>
      </trkseg>
  </trk>
</gpx>